sensor_id;sensor_type;location;lat;lon;timestamp;pressure;altitude;pressure_sealevel;temperature;humidity
54146;BME280;65909;49.422;7.738;2023-02-12T00:01:22;78422.72;;;-145.25;82.67
54146;BME280;65909;49.422;7.738;2023-02-12T00:03:48;78384.59;;;-145.25;81.59
54146;BME280;65909;49.422;7.738;2023-02-12T00:06:14;78402.66;;;-145.25;81.54
54146;BME280;65909;49.422;7.738;2023-02-12T00:08:40;78370.56;;;-145.25;81.42
54146;BME280;65909;49.422;7.738;2023-02-12T00:11:07;78362.53;;;-145.25;80.97
54146;BME280;65909;49.422;7.738;2023-02-12T00:13:32;78358.53;;;-145.25;80.64
54146;BME280;65909;49.422;7.738;2023-02-12T00:15:58;78392.63;;;-145.25;80.74
54146;BME280;65909;49.422;7.738;2023-02-12T00:18:23;78378.59;;;-145.25;81.08
54146;BME280;65909;49.422;7.738;2023-02-12T00:20:48;78368.56;;;-145.25;80.51
54146;BME280;65909;49.422;7.738;2023-02-12T00:23:14;78342.47;;;-145.25;80.19
54146;BME280;65909;49.422;7.738;2023-02-12T00:25:41;78328.44;;;-145.25;79.61
54146;BME280;65909;49.422;7.738;2023-02-12T00:28:06;78318.41;;;-145.25;78.89
54146;BME280;65909;49.422;7.738;2023-02-12T00:30:32;78316.41;;;-145.25;79.23
54146;BME280;65909;49.422;7.738;2023-02-12T00:32:57;78316.41;;;-145.25;79.39
54146;BME280;65909;49.422;7.738;2023-02-12T00:35:22;78304.38;;;-145.25;78.96
54146;BME280;65909;49.422;7.738;2023-02-12T00:37:48;78310.38;;;-145.25;78.66
54146;BME280;65909;49.422;7.738;2023-02-12T00:40:13;78336.47;;;-145.25;79.15
54146;BME280;65909;49.422;7.738;2023-02-12T00:42:38;78362.53;;;-145.25;80.45
54146;BME280;65909;49.422;7.738;2023-02-12T00:45:04;78328.44;;;-145.25;79.54
54146;BME280;65909;49.422;7.738;2023-02-12T00:47:29;78338.47;;;-145.25;79.41
54146;BME280;65909;49.422;7.738;2023-02-12T00:49:55;78318.41;;;-145.25;78.91
54146;BME280;65909;49.422;7.738;2023-02-12T00:52:20;78312.41;;;-145.25;78.95
54146;BME280;65909;49.422;7.738;2023-02-12T00:54:45;78310.38;;;-145.25;78.68
54146;BME280;65909;49.422;7.738;2023-02-12T00:57:11;78294.34;;;-145.25;78.11
54146;BME280;65909;49.422;7.738;2023-02-12T00:59:36;78304.38;;;-145.25;78.02
54146;BME280;65909;49.422;7.738;2023-02-12T01:02:04;78308.38;;;-145.25;78.35
54146;BME280;65909;49.422;7.738;2023-02-12T01:04:29;78328.44;;;-145.25;78.98
54146;BME280;65909;49.422;7.738;2023-02-12T01:06:54;78334.47;;;-145.25;79.47
54146;BME280;65909;49.422;7.738;2023-02-12T01:09:20;78314.41;;;-145.25;78.75
54146;BME280;65909;49.422;7.738;2023-02-12T01:11:45;78318.41;;;-145.25;79.02
54146;BME280;65909;49.422;7.738;2023-02-12T01:14:11;78320.41;;;-145.25;79.09
54146;BME280;65909;49.422;7.738;2023-02-12T01:16:36;78326.44;;;-145.25;79.37
54146;BME280;65909;49.422;7.738;2023-02-12T01:19:02;78312.41;;;-145.25;79.18
54146;BME280;65909;49.422;7.738;2023-02-12T01:21:30;78308.38;;;-145.25;78.75
54146;BME280;65909;49.422;7.738;2023-02-12T01:23:57;78302.38;;;-145.25;78.35
54146;BME280;65909;49.422;7.738;2023-02-12T01:26:23;78302.38;;;-145.25;78.51
54146;BME280;65909;49.422;7.738;2023-02-12T01:28:54;78310.38;;;-145.25;78.57
54146;BME280;65909;49.422;7.738;2023-02-12T01:31:22;78304.38;;;-145.25;78.48
54146;BME280;65909;49.422;7.738;2023-02-12T01:33:49;78296.34;;;-145.25;78.10
54146;BME280;65909;49.422;7.738;2023-02-12T01:36:15;78318.41;;;-145.25;78.49
54146;BME280;65909;49.422;7.738;2023-02-12T01:38:41;78424.72;;;-145.25;81.00
54146;BME280;65909;49.422;7.738;2023-02-12T01:41:11;78364.56;;;-145.25;80.64
54146;BME280;65909;49.422;7.738;2023-02-12T01:43:37;78346.50;;;-145.25;79.78
54146;BME280;65909;49.422;7.738;2023-02-12T01:46:04;78350.50;;;-145.25;79.81
54146;BME280;65909;49.422;7.738;2023-02-12T01:48:34;78322.44;;;-145.25;79.18
54146;BME280;65909;49.422;7.738;2023-02-12T01:51:01;78338.47;;;-145.25;78.96
54146;BME280;65909;49.422;7.738;2023-02-12T01:53:33;78334.47;;;-145.25;79.59
54146;BME280;65909;49.422;7.738;2023-02-12T01:56:01;78306.38;;;-145.25;78.66
54146;BME280;65909;49.422;7.738;2023-02-12T01:58:30;78302.38;;;-145.25;78.31
54146;BME280;65909;49.422;7.738;2023-02-12T02:01:01;78290.34;;;-145.25;77.80
54146;BME280;65909;49.422;7.738;2023-02-12T02:03:27;78298.34;;;-145.25;78.55
54146;BME280;65909;49.422;7.738;2023-02-12T02:05:57;78354.53;;;-145.25;79.65
54146;BME280;65909;49.422;7.738;2023-02-12T02:08:24;78390.63;;;-145.25;81.08
54146;BME280;65909;49.422;7.738;2023-02-12T02:10:49;78358.53;;;-145.25;80.62
54146;BME280;65909;49.422;7.738;2023-02-12T02:13:14;78386.63;;;-145.25;80.51
54146;BME280;65909;49.422;7.738;2023-02-12T02:16:04;78424.72;;;-145.25;82.02
54146;BME280;65909;49.422;7.738;2023-02-12T02:18:52;78398.66;;;-145.25;82.00
54146;BME280;65909;49.422;7.738;2023-02-12T02:21:44;78394.63;;;-145.25;81.14
54146;BME280;65909;49.422;7.738;2023-02-12T02:27:21;78468.84;;;-145.25;84.43
54146;BME280;65909;49.422;7.738;2023-02-12T02:41:07;78478.88;;;-145.25;85.38
54146;BME280;65909;49.422;7.738;2023-02-12T02:43:41;78422.72;;;-145.25;84.16
54146;BME280;65909;49.422;7.738;2023-02-12T02:46:20;78420.72;;;-145.25;82.97
54146;BME280;65909;49.422;7.738;2023-02-12T02:48:51;78428.72;;;-145.25;83.06
54146;BME280;65909;49.422;7.738;2023-02-12T02:51:21;78408.69;;;-145.25;82.85
54146;BME280;65909;49.422;7.738;2023-02-12T02:53:53;78418.72;;;-145.25;82.92
54146;BME280;65909;49.422;7.738;2023-02-12T02:56:22;78426.72;;;-145.25;82.97
54146;BME280;65909;49.422;7.738;2023-02-12T02:58:54;78464.84;;;-145.25;83.90
54146;BME280;65909;49.422;7.738;2023-02-12T03:01:25;78450.81;;;-145.25;84.85
54146;BME280;65909;49.422;7.738;2023-02-12T03:06:45;78398.66;;;-145.25;81.95
54146;BME280;65909;49.422;7.738;2023-02-12T03:09:28;78420.72;;;-145.25;82.50
54146;BME280;65909;49.422;7.738;2023-02-12T03:11:58;78438.75;;;-145.25;83.11
54146;BME280;65909;49.422;7.738;2023-02-12T03:14:31;78450.81;;;-145.25;83.67
54146;BME280;65909;49.422;7.738;2023-02-12T03:17:04;78472.88;;;-145.25;84.91
54146;BME280;65909;49.422;7.738;2023-02-12T03:19:36;78468.84;;;-145.25;85.12
54146;BME280;65909;49.422;7.738;2023-02-12T03:22:07;78464.84;;;-145.25;85.06
54146;BME280;65909;49.422;7.738;2023-02-12T03:24:50;78440.78;;;-145.25;84.25
54146;BME280;65909;49.422;7.738;2023-02-12T03:27:22;78462.84;;;-145.25;84.52
54146;BME280;65909;49.422;7.738;2023-02-12T03:29:50;78478.88;;;-145.25;85.50
54146;BME280;65909;49.422;7.738;2023-02-12T03:35:23;78474.88;;;-145.25;85.77
54146;BME280;65909;49.422;7.738;2023-02-12T03:37:55;78478.88;;;-145.25;85.66
54146;BME280;65909;49.422;7.738;2023-02-12T03:40:32;78466.84;;;-145.25;86.45
54146;BME280;65909;49.422;7.738;2023-02-12T03:43:03;78412.69;;;-145.25;84.45
54146;BME280;65909;49.422;7.738;2023-02-12T03:45:51;78392.63;;;-145.25;82.66
54146;BME280;65909;49.422;7.738;2023-02-12T03:48:24;78380.59;;;-145.25;82.39
54146;BME280;65909;49.422;7.738;2023-02-12T03:50:57;78382.59;;;-145.25;82.36
54146;BME280;65909;49.422;7.738;2023-02-12T03:53:26;78390.63;;;-145.25;81.60
54146;BME280;65909;49.422;7.738;2023-02-12T03:55:57;78382.59;;;-145.25;81.54
54146;BME280;65909;49.422;7.738;2023-02-12T03:58:27;78364.56;;;-145.25;81.05
54146;BME280;65909;49.422;7.738;2023-02-12T04:00:54;78362.53;;;-145.25;80.19
54146;BME280;65909;49.422;7.738;2023-02-12T04:03:20;78362.53;;;-145.25;80.00
54146;BME280;65909;49.422;7.738;2023-02-12T04:05:45;78418.72;;;-145.25;81.11
54146;BME280;65909;49.422;7.738;2023-02-12T04:08:11;78438.75;;;-145.25;82.69
54146;BME280;65909;49.422;7.738;2023-02-12T04:13:22;78466.84;;;-145.25;83.40
54146;BME280;65909;49.422;7.738;2023-02-12T04:16:11;78494.94;;;-145.25;84.89
54146;BME280;65909;49.422;7.738;2023-02-12T04:18:43;78496.94;;;-145.25;85.17
54146;BME280;65909;49.422;7.738;2023-02-12T04:24:24;78438.75;;;-145.25;83.99
54146;BME280;65909;49.422;7.738;2023-02-12T04:29:44;78422.72;;;-145.25;82.84
54146;BME280;65909;49.422;7.738;2023-02-12T04:32:20;78398.66;;;-145.25;81.81
54146;BME280;65909;49.422;7.738;2023-02-12T04:34:56;78384.59;;;-145.25;81.72
54146;BME280;65909;49.422;7.738;2023-02-12T04:37:44;78374.56;;;-145.25;81.09
54146;BME280;65909;49.422;7.738;2023-02-12T04:40:15;78364.56;;;-145.25;80.53
54146;BME280;65909;49.422;7.738;2023-02-12T04:42:46;78362.53;;;-145.25;80.21
54146;BME280;65909;49.422;7.738;2023-02-12T04:45:20;78350.50;;;-145.25;80.49
54146;BME280;65909;49.422;7.738;2023-02-12T04:47:47;78346.50;;;-145.25;79.82
54146;BME280;65909;49.422;7.738;2023-02-12T04:50:13;78350.50;;;-145.25;79.85
54146;BME280;65909;49.422;7.738;2023-02-12T04:52:38;78410.69;;;-145.25;80.12
54146;BME280;65909;49.422;7.738;2023-02-12T04:55:04;78450.81;;;-145.25;82.70
54146;BME280;65909;49.422;7.738;2023-02-12T04:57:29;78442.78;;;-145.25;82.89
54146;BME280;65909;49.422;7.738;2023-02-12T04:59:54;78422.72;;;-145.25;83.00
54146;BME280;65909;49.422;7.738;2023-02-12T05:02:20;78434.75;;;-145.25;82.88
54146;BME280;65909;49.422;7.738;2023-02-12T05:04:48;78498.94;;;-145.25;84.35
54146;BME280;65909;49.422;7.738;2023-02-12T05:07:13;78512.97;;;-145.25;84.70
54146;BME280;65909;49.422;7.738;2023-02-12T05:09:38;78547.09;;;-145.25;86.63
54146;BME280;65909;49.422;7.738;2023-02-12T05:12:04;78571.16;;;-145.25;87.92
54146;BME280;65909;49.422;7.738;2023-02-12T05:14:29;78575.16;;;-145.25;87.72
54146;BME280;65909;49.422;7.738;2023-02-12T05:16:55;78539.06;;;-145.25;86.85
54146;BME280;65909;49.422;7.738;2023-02-12T05:19:20;78555.09;;;-145.25;87.21
54146;BME280;65909;49.422;7.738;2023-02-12T05:21:49;78575.16;;;-145.25;88.48
54146;BME280;65909;49.422;7.738;2023-02-12T05:24:14;78551.09;;;-145.25;87.83
54146;BME280;65909;49.422;7.738;2023-02-12T05:26:39;78496.94;;;-145.25;86.70
54146;BME280;65909;49.422;7.738;2023-02-12T05:29:05;78476.88;;;-145.25;85.06
54146;BME280;65909;49.422;7.738;2023-02-12T05:31:30;78458.81;;;-145.25;84.75
54146;BME280;65909;49.422;7.738;2023-02-12T05:33:56;78460.81;;;-145.25;84.19
54146;BME280;65909;49.422;7.738;2023-02-12T05:36:22;78426.72;;;-145.25;83.44
54146;BME280;65909;49.422;7.738;2023-02-12T05:38:48;78412.69;;;-145.25;83.06
54146;BME280;65909;49.422;7.738;2023-02-12T05:41:20;78404.66;;;-145.25;81.94
54146;BME280;65909;49.422;7.738;2023-02-12T05:43:46;78388.63;;;-145.25;82.12
54146;BME280;65909;49.422;7.738;2023-02-12T05:46:12;78392.63;;;-145.25;81.90
54146;BME280;65909;49.422;7.738;2023-02-12T05:48:38;78450.81;;;-145.25;82.15
54146;BME280;65909;49.422;7.738;2023-02-12T05:51:09;78404.66;;;-145.25;82.33
54146;BME280;65909;49.422;7.738;2023-02-12T05:53:36;78390.63;;;-145.25;81.18
54146;BME280;65909;49.422;7.738;2023-02-12T05:58:34;78378.59;;;-145.25;80.29
54146;BME280;65909;49.422;7.738;2023-02-12T06:01:02;78378.59;;;-145.25;79.93
54146;BME280;65909;49.422;7.738;2023-02-12T06:03:32;78374.56;;;-145.25;80.38
54146;BME280;65909;49.422;7.738;2023-02-12T06:05:58;78370.56;;;-145.25;80.18
54146;BME280;65909;49.422;7.738;2023-02-12T06:08:23;78372.56;;;-145.25;79.50
54146;BME280;65909;49.422;7.738;2023-02-12T06:10:48;78362.53;;;-145.25;79.86
54146;BME280;65909;49.422;7.738;2023-02-12T06:13:14;78390.63;;;-145.25;80.32
54146;BME280;65909;49.422;7.738;2023-02-12T06:15:39;78410.69;;;-145.25;80.21
54146;BME280;65909;49.422;7.738;2023-02-12T06:18:04;78406.66;;;-145.25;80.53
54146;BME280;65909;49.422;7.738;2023-02-12T06:20:30;78444.78;;;-145.25;81.66
54146;BME280;65909;49.422;7.738;2023-02-12T06:22:55;78430.75;;;-145.25;81.47
54146;BME280;65909;49.422;7.738;2023-02-12T06:25:20;78420.72;;;-145.25;81.34
54146;BME280;65909;49.422;7.738;2023-02-12T06:27:46;78438.75;;;-145.25;81.48
54146;BME280;65909;49.422;7.738;2023-02-12T06:30:12;78422.72;;;-145.25;81.16
54146;BME280;65909;49.422;7.738;2023-02-12T06:32:37;78392.63;;;-145.25;80.77
54146;BME280;65909;49.422;7.738;2023-02-12T06:35:03;78454.81;;;-145.25;81.52
54146;BME280;65909;49.422;7.738;2023-02-12T06:37:28;78450.81;;;-145.25;82.68
54146;BME280;65909;49.422;7.738;2023-02-12T06:39:53;78432.75;;;-145.25;81.99
54146;BME280;65909;49.422;7.738;2023-02-12T06:42:19;78436.75;;;-145.25;81.52
54146;BME280;65909;49.422;7.738;2023-02-12T06:44:44;78438.75;;;-145.25;82.25
54146;BME280;65909;49.422;7.738;2023-02-12T06:47:10;78434.75;;;-145.25;82.30
54146;BME280;65909;49.422;7.738;2023-02-12T06:49:36;78460.81;;;-145.25;83.19
54146;BME280;65909;49.422;7.738;2023-02-12T06:52:01;78480.88;;;-145.25;83.83
54146;BME280;65909;49.422;7.738;2023-02-12T06:54:26;78543.06;;;-145.25;86.41
54146;BME280;65909;49.422;7.738;2023-02-12T06:56:52;78575.16;;;-145.25;88.88
54146;BME280;65909;49.422;7.738;2023-02-12T06:59:17;78519.00;;;-145.25;88.09
54146;BME280;65909;49.422;7.738;2023-02-12T07:01:43;78585.19;;;-145.25;89.94
54146;BME280;65909;49.422;7.738;2023-02-12T07:04:09;78605.25;;;-145.25;91.76
54146;BME280;65909;49.422;7.738;2023-02-12T07:06:35;78589.22;;;-145.25;91.72
54146;BME280;65909;49.422;7.738;2023-02-12T07:09:02;78569.16;;;-145.25;91.41
54146;BME280;65909;49.422;7.738;2023-02-12T07:11:30;78587.19;;;-145.25;91.93
54146;BME280;65909;49.422;7.738;2023-02-12T07:13:55;78583.19;;;-145.25;92.82
54146;BME280;65909;49.422;7.738;2023-02-12T07:16:21;78569.16;;;-145.25;92.87
54146;BME280;65909;49.422;7.738;2023-02-12T07:18:47;78599.22;;;-145.25;93.30
54146;BME280;65909;49.422;7.738;2023-02-12T07:21:14;78589.22;;;-145.25;93.00
54146;BME280;65909;49.422;7.738;2023-02-12T07:23:40;78611.28;;;-145.25;93.51
54146;BME280;65909;49.422;7.738;2023-02-12T07:26:10;78559.13;;;-145.25;93.91
54146;BME280;65909;49.422;7.738;2023-02-12T07:28:36;78515.00;;;-145.25;92.19
54146;BME280;65909;49.422;7.738;2023-02-12T07:31:22;78478.88;;;-145.25;89.80
54146;BME280;65909;49.422;7.738;2023-02-12T07:33:51;78466.84;;;-145.25;89.39
54146;BME280;65909;49.422;7.738;2023-02-12T07:36:18;78488.91;;;-145.25;89.19
54146;BME280;65909;49.422;7.738;2023-02-12T07:38:44;78446.78;;;-145.25;88.51
54146;BME280;65909;49.422;7.738;2023-02-12T07:41:31;78424.72;;;-145.25;87.16
54146;BME280;65909;49.422;7.738;2023-02-12T07:44:02;78440.78;;;-145.25;87.39
54146;BME280;65909;49.422;7.738;2023-02-12T07:46:33;78458.81;;;-145.25;88.33
54146;BME280;65909;49.422;7.738;2023-02-12T07:49:00;78432.75;;;-145.25;88.48
54146;BME280;65909;49.422;7.738;2023-02-12T07:51:27;78416.69;;;-145.25;87.29
54146;BME280;65909;49.422;7.738;2023-02-12T07:53:52;78466.84;;;-145.25;88.61
54146;BME280;65909;49.422;7.738;2023-02-12T07:56:26;78430.75;;;-145.25;87.83
54146;BME280;65909;49.422;7.738;2023-02-12T07:58:55;78422.72;;;-145.25;86.99
54146;BME280;65909;49.422;7.738;2023-02-12T08:01:25;78412.69;;;-145.25;87.30
54146;BME280;65909;49.422;7.738;2023-02-12T08:03:52;78404.66;;;-145.25;87.15
54146;BME280;65909;49.422;7.738;2023-02-12T08:06:20;78394.63;;;-145.25;87.13
54146;BME280;65909;49.422;7.738;2023-02-12T08:08:47;78382.59;;;-145.25;86.59
54146;BME280;65909;49.422;7.738;2023-02-12T08:11:14;78366.56;;;-145.25;86.27
54146;BME280;65909;49.422;7.738;2023-02-12T08:13:40;78360.53;;;-145.25;85.48
54146;BME280;65909;49.422;7.738;2023-02-12T08:16:08;78358.53;;;-145.25;85.01
54146;BME280;65909;49.422;7.738;2023-02-12T08:18:33;78406.66;;;-145.25;85.72
54146;BME280;65909;49.422;7.738;2023-02-12T08:21:06;78414.69;;;-145.25;87.34
54146;BME280;65909;49.422;7.738;2023-02-12T08:23:32;78414.69;;;-145.25;88.24
54146;BME280;65909;49.422;7.738;2023-02-12T08:26:08;78402.66;;;-145.25;86.98
54146;BME280;65909;49.422;7.738;2023-02-12T08:28:34;78368.56;;;-145.25;87.21
54146;BME280;65909;49.422;7.738;2023-02-12T08:31:01;78340.47;;;-145.25;85.88
54146;BME280;65909;49.422;7.738;2023-02-12T08:33:27;78330.44;;;-145.25;85.39
54146;BME280;65909;49.422;7.738;2023-02-12T08:36:08;78304.38;;;-145.25;84.21
54146;BME280;65909;49.422;7.738;2023-02-12T08:38:34;78314.41;;;-145.25;83.96
54146;BME280;65909;49.422;7.738;2023-02-12T08:41:05;78340.47;;;-145.25;84.67
54146;BME280;65909;49.422;7.738;2023-02-12T08:43:31;78366.56;;;-145.25;85.53
54146;BME280;65909;49.422;7.738;2023-02-12T08:46:11;78354.53;;;-145.25;86.00
54146;BME280;65909;49.422;7.738;2023-02-12T08:48:36;78350.50;;;-145.25;85.41
54146;BME280;65909;49.422;7.738;2023-02-12T08:51:28;78310.38;;;-145.25;83.32
54146;BME280;65909;49.422;7.738;2023-02-12T08:53:57;78326.44;;;-145.25;83.79
54146;BME280;65909;49.422;7.738;2023-02-12T08:56:24;78312.41;;;-145.25;83.67
54146;BME280;65909;49.422;7.738;2023-02-12T08:58:50;78286.31;;;-145.25;83.40
54146;BME280;65909;49.422;7.738;2023-02-12T09:01:19;78298.34;;;-145.25;83.35
54146;BME280;65909;49.422;7.738;2023-02-12T09:03:45;78282.31;;;-145.25;82.44
54146;BME280;65909;49.422;7.738;2023-02-12T09:06:11;78276.28;;;-145.25;82.06
54146;BME280;65909;49.422;7.738;2023-02-12T09:08:38;78318.41;;;-145.25;82.81
54146;BME280;65909;49.422;7.738;2023-02-12T09:11:08;78326.44;;;-145.25;84.15
54146;BME280;65909;49.422;7.738;2023-02-12T09:13:34;78300.38;;;-145.25;83.37
54146;BME280;65909;49.422;7.738;2023-02-12T09:16:02;78314.41;;;-145.25;82.54
54146;BME280;65909;49.422;7.738;2023-02-12T09:18:28;78298.34;;;-145.25;82.36
54146;BME280;65909;49.422;7.738;2023-02-12T09:20:53;78294.34;;;-145.25;81.89
54146;BME280;65909;49.422;7.738;2023-02-12T09:23:19;78294.34;;;-145.25;82.34
54146;BME280;65909;49.422;7.738;2023-02-12T09:25:45;78304.38;;;-145.25;83.01
54146;BME280;65909;49.422;7.738;2023-02-12T09:28:12;78302.38;;;-145.25;83.68
54146;BME280;65909;49.422;7.738;2023-02-12T09:30:38;78306.38;;;-145.25;83.17
54146;BME280;65909;49.422;7.738;2023-02-12T09:33:04;78274.28;;;-145.25;81.71
54146;BME280;65909;49.422;7.738;2023-02-12T09:35:33;78262.25;;;-145.25;81.20
54146;BME280;65909;49.422;7.738;2023-02-12T09:37:59;78244.19;;;-145.25;80.85
54146;BME280;65909;49.422;7.738;2023-02-12T09:40:32;78240.19;;;-145.25;79.28
54146;BME280;65909;49.422;7.738;2023-02-12T09:45:38;78210.09;;;-145.25;79.12
54146;BME280;65909;49.422;7.738;2023-02-12T09:50:53;78212.09;;;-145.25;79.78
54146;BME280;65909;49.422;7.738;2023-02-12T09:53:26;78194.06;;;-145.25;79.34
54146;BME280;65909;49.422;7.738;2023-02-12T09:55:52;78163.97;;;-145.25;78.78
54146;BME280;65909;49.422;7.738;2023-02-12T09:58:32;78149.94;;;-145.25;79.18
54146;BME280;65909;49.422;7.738;2023-02-12T10:01:00;78137.91;;;-145.25;77.74
54146;BME280;65909;49.422;7.738;2023-02-12T10:03:28;78127.88;;;-145.25;76.22
54146;BME280;65909;49.422;7.738;2023-02-12T10:06:04;78163.97;;;-145.25;77.74
54146;BME280;65909;49.422;7.738;2023-02-12T10:11:48;78186.03;;;-145.25;78.89
54146;BME280;65909;49.422;7.738;2023-02-12T10:14:24;78188.03;;;-145.25;78.75
54146;BME280;65909;49.422;7.738;2023-02-12T10:28:10;78129.88;;;-145.25;78.05
54146;BME280;65909;49.422;7.738;2023-02-12T10:30:39;78111.81;;;-145.25;77.24
54146;BME280;65909;49.422;7.738;2023-02-12T10:33:13;78109.81;;;-145.25;78.09
54146;BME280;65909;49.422;7.738;2023-02-12T10:35:44;78089.75;;;-145.25;77.02
54146;BME280;65909;49.422;7.738;2023-02-12T10:38:19;78063.69;;;-145.25;76.10
54146;BME280;65909;49.422;7.738;2023-02-12T10:40:45;78053.66;;;-145.25;77.18
54146;BME280;65909;49.422;7.738;2023-02-12T10:43:12;78043.63;;;-145.25;76.58
54146;BME280;65909;49.422;7.738;2023-02-12T10:45:39;78045.63;;;-145.25;76.61
54146;BME280;65909;49.422;7.738;2023-02-12T10:48:29;78009.53;;;-145.25;75.78
54146;BME280;65909;49.422;7.738;2023-02-12T10:50:59;78047.66;;;-145.25;76.22
54146;BME280;65909;49.422;7.738;2023-02-12T10:53:41;78027.59;;;-145.25;76.59
54146;BME280;65909;49.422;7.738;2023-02-12T10:56:17;78007.53;;;-145.25;76.13
54146;BME280;65909;49.422;7.738;2023-02-12T11:01:27;78007.53;;;-145.25;75.71
54146;BME280;65909;49.422;7.738;2023-02-12T11:03:54;78001.50;;;-145.25;74.79
54146;BME280;65909;49.422;7.738;2023-02-12T11:06:23;77987.47;;;-145.25;75.85
54146;BME280;65909;49.422;7.738;2023-02-12T11:08:49;78099.78;;;-145.25;78.34
54146;BME280;65909;49.422;7.738;2023-02-12T11:11:19;78155.94;;;-145.25;81.29
54146;BME280;65909;49.422;7.738;2023-02-12T11:13:53;78077.72;;;-145.25;79.48
54146;BME280;65909;49.422;7.738;2023-02-12T11:16:41;78101.78;;;-145.25;78.79
54146;BME280;65909;49.422;7.738;2023-02-12T11:19:19;78037.63;;;-145.25;78.84
54146;BME280;65909;49.422;7.738;2023-02-12T11:21:44;78045.63;;;-145.25;78.24
54146;BME280;65909;49.422;7.738;2023-02-12T11:26:50;78069.69;;;-145.25;78.84
54146;BME280;65909;49.422;7.738;2023-02-12T11:29:21;78041.63;;;-145.25;78.92
54146;BME280;65909;49.422;7.738;2023-02-12T11:32:01;78013.53;;;-145.25;77.51
54146;BME280;65909;49.422;7.738;2023-02-12T11:34:26;78027.59;;;-145.25;77.52
54146;BME280;65909;49.422;7.738;2023-02-12T11:36:53;78063.69;;;-145.25;79.75
54146;BME280;65909;49.422;7.738;2023-02-12T11:39:26;77987.47;;;-145.25;77.86
54146;BME280;65909;49.422;7.738;2023-02-12T11:42:00;77921.28;;;-145.25;76.07
54146;BME280;65909;49.422;7.738;2023-02-12T11:44:36;77937.34;;;-145.25;75.62
54146;BME280;65909;49.422;7.738;2023-02-12T11:47:27;77945.34;;;-145.25;75.70
54146;BME280;65909;49.422;7.738;2023-02-12T11:50:04;77945.34;;;-145.25;74.41
54146;BME280;65909;49.422;7.738;2023-02-12T11:52:34;77989.47;;;-145.25;75.80
54146;BME280;65909;49.422;7.738;2023-02-12T11:55:04;77977.44;;;-145.25;76.81
54146;BME280;65909;49.422;7.738;2023-02-12T11:57:45;77939.34;;;-145.25;76.04
54146;BME280;65909;49.422;7.738;2023-02-12T12:00:15;77837.06;;;-145.25;72.33
54146;BME280;65909;49.422;7.738;2023-02-12T12:02:49;77780.91;;;-145.25;71.54
54146;BME280;65909;49.422;7.738;2023-02-12T12:05:18;77806.97;;;-145.25;71.26
54146;BME280;65909;49.422;7.738;2023-02-12T12:07:52;77778.91;;;-145.25;70.20
54146;BME280;65909;49.422;7.738;2023-02-12T12:10:32;77819.00;;;-145.25;70.88
54146;BME280;65909;49.422;7.738;2023-02-12T12:13:04;77784.91;;;-145.25;69.62
54146;BME280;65909;49.422;7.738;2023-02-12T12:15:42;77776.88;;;-145.25;69.33
54146;BME280;65909;49.422;7.738;2023-02-12T12:18:33;77694.66;;;-145.25;67.53
54146;BME280;65909;49.422;7.738;2023-02-12T12:24:30;77712.72;;;-145.25;68.12
54146;BME280;65909;49.422;7.738;2023-02-12T12:26:55;77624.47;;;-145.25;66.26
54146;BME280;65909;49.422;7.738;2023-02-12T12:29:49;77516.19;;;-145.25;63.34
54146;BME280;65909;49.422;7.738;2023-02-12T12:32:18;77552.28;;;-145.25;62.96
54146;BME280;65909;49.422;7.738;2023-02-12T12:34:46;77514.16;;;-145.25;62.21
54146;BME280;65909;49.422;7.738;2023-02-12T12:37:16;77427.94;;;-145.25;61.27
54146;BME280;65909;49.422;7.738;2023-02-12T12:40:27;77343.72;;;-145.25;58.43
54146;BME280;65909;49.422;7.738;2023-02-12T12:48:16;77243.47;;;-145.25;55.96
54146;BME280;65909;49.422;7.738;2023-02-12T12:52:06;77141.19;;;-145.25;53.25
54146;BME280;65909;49.422;7.738;2023-02-12T12:54:30;77207.38;;;-145.25;54.18
54146;BME280;65909;49.422;7.738;2023-02-12T12:59:53;77243.47;;;-145.25;54.53
54146;BME280;65909;49.422;7.738;2023-02-12T13:02:48;77285.56;;;-145.25;55.60
54146;BME280;65909;49.422;7.738;2023-02-12T13:10:56;77343.72;;;-145.25;56.68
54146;BME280;65909;49.422;7.738;2023-02-12T13:13:34;77301.59;;;-145.25;56.09
54146;BME280;65909;49.422;7.738;2023-02-12T13:16:21;77247.47;;;-145.25;54.60
54146;BME280;65909;49.422;7.738;2023-02-12T13:21:21;77409.91;;;-145.25;57.42
54146;BME280;65909;49.422;7.738;2023-02-12T13:23:58;77363.78;;;-145.25;57.45
54146;BME280;65909;49.422;7.738;2023-02-12T13:26:29;77327.69;;;-145.25;57.09
54146;BME280;65909;49.422;7.738;2023-02-12T13:29:10;77353.75;;;-145.25;57.61
54146;BME280;65909;49.422;7.738;2023-02-12T13:31:48;77403.88;;;-145.25;58.54
54146;BME280;65909;49.422;7.738;2023-02-12T13:34:16;77454.00;;;-145.25;59.45
54146;BME280;65909;49.422;7.738;2023-02-12T13:36:42;77502.13;;;-145.25;60.79
54146;BME280;65909;49.422;7.738;2023-02-12T13:39:17;77476.06;;;-145.25;60.44
54146;BME280;65909;49.422;7.738;2023-02-12T13:41:57;77502.13;;;-145.25;60.65
54146;BME280;65909;49.422;7.738;2023-02-12T13:44:31;77415.91;;;-145.25;59.20
54146;BME280;65909;49.422;7.738;2023-02-12T13:47:19;77347.72;;;-145.25;57.85
54146;BME280;65909;49.422;7.738;2023-02-12T13:53:05;77385.84;;;-145.25;57.76
54146;BME280;65909;49.422;7.738;2023-02-12T13:58:37;77488.09;;;-145.25;59.40
54146;BME280;65909;49.422;7.738;2023-02-12T14:03:15;77576.34;;;-145.25;62.10
54146;BME280;65909;49.422;7.738;2023-02-12T14:05:40;77588.38;;;-145.25;62.49
54146;BME280;65909;49.422;7.738;2023-02-12T14:08:06;77624.47;;;-145.25;63.04
54146;BME280;65909;49.422;7.738;2023-02-12T14:10:41;77616.44;;;-145.25;62.87
54146;BME280;65909;49.422;7.738;2023-02-12T14:15:38;77522.19;;;-145.25;60.97
54146;BME280;65909;49.422;7.738;2023-02-12T14:18:34;77566.31;;;-145.25;61.62
54146;BME280;65909;49.422;7.738;2023-02-12T14:23:41;77580.34;;;-145.25;61.33
54146;BME280;65909;49.422;7.738;2023-02-12T14:26:16;77658.56;;;-145.25;63.73